Time;durP1;ratioP1;P1;durP2;ratioP2;P2;SDS_P1;SDS_P2;PMS_P1;PMS_P2;Temp;Humidity;BMP_temperature;BMP_pressure;BME280_temperature;BME280_humidity;BME280_pressure;Samples;Min_cycle;Max_cycle;Signal;HPM_P1;HPM_P2
2021/07/02 00:02:23;;;;;;;25.90;16.83;;;15.40;99.90;;;;;;5034668;28;20633;-61
2021/07/02 00:04:48;;;;;;;23.27;16.80;;;15.30;99.90;;;;;;5035461;28;20060;-63
2021/07/02 00:07:14;;;;;;;24.95;17.52;;;15.30;99.90;;;;;;5034173;28;20146;-61
2021/07/02 00:09:39;;;;;;;25.55;17.58;;;15.30;99.90;;;;;;5034648;28;20392;-61
2021/07/02 00:12:05;;;;;;;28.30;16.77;;;15.40;99.90;;;;;;5034683;28;20025;-61
2021/07/02 00:14:31;;;;;;;27.02;17.25;;;15.30;99.90;;;;;;5034739;28;20107;-61
2021/07/02 00:16:56;;;;;;;24.23;16.50;;;15.30;99.90;;;;;;5034300;28;20037;-61
2021/07/02 00:19:24;;;;;;;25.60;16.90;;;15.40;99.90;;;;;;5034683;28;20037;-61
2021/07/02 00:21:50;;;;;;;27.85;17.17;;;15.40;99.90;;;;;;5034975;28;20026;-61
2021/07/02 00:24:16;;;;;;;25.05;16.67;;;15.40;99.90;;;;;;5034173;28;20040;-62
2021/07/02 00:26:42;;;;;;;28.95;17.80;;;15.40;99.90;;;;;;5033662;28;20051;-61
2021/07/02 00:29:08;;;;;;;26.25;16.58;;;15.30;99.90;;;;;;5033807;28;20025;-59
2021/07/02 00:31:33;;;;;;;27.33;18.23;;;15.30;99.90;;;;;;5034155;28;20053;-60
2021/07/02 00:33:59;;;;;;;27.17;16.40;;;15.20;99.90;;;;;;5034189;28;20033;-61
2021/07/02 00:36:25;;;;;;;30.13;18.88;;;15.30;99.90;;;;;;5033178;28;20397;-60
2021/07/02 00:38:51;;;;;;;26.73;17.55;;;15.30;99.90;;;;;;5039606;28;20033;-59
2021/07/02 00:41:17;;;;;;;30.58;18.08;;;15.40;99.90;;;;;;5034312;28;20044;-60
2021/07/02 00:43:50;;;;;;;24.13;16.80;;;15.50;99.90;;;;;;5033822;28;20029;-60
2021/07/02 00:46:16;;;;;;;29.43;17.63;;;15.40;99.90;;;;;;5033580;28;20037;-60
2021/07/02 00:48:42;;;;;;;27.50;18.05;;;15.50;99.90;;;;;;5033795;28;20025;-61
2021/07/02 00:51:07;;;;;;;27.45;19.35;;;15.50;99.90;;;;;;5033957;28;20074;-61
2021/07/02 00:53:33;;;;;;;25.48;17.20;;;15.60;99.90;;;;;;5033666;28;20381;-61
2021/07/02 00:56:00;;;;;;;29.00;18.92;;;15.50;99.90;;;;;;5033811;28;20377;-59
2021/07/02 00:58:31;;;;;;;33.45;19.88;;;15.60;99.90;;;;;;5033556;28;20037;-60
2021/07/02 01:00:57;;;;;;;30.33;20.23;;;15.50;99.90;;;;;;5034377;28;20066;-60
2021/07/02 01:03:23;;;;;;;28.30;18.73;;;15.50;99.90;;;;;;5033562;28;20040;-60
2021/07/02 01:05:48;;;;;;;29.48;19.70;;;15.50;99.90;;;;;;5015586;28;20037;-60
2021/07/02 01:08:14;;;;;;;28.90;18.58;;;15.40;99.90;;;;;;5015684;28;20034;-60
2021/07/02 01:10:42;;;;;;;29.73;19.67;;;15.50;99.90;;;;;;5033412;28;20033;-61
2021/07/02 01:13:07;;;;;;;27.08;18.65;;;15.50;99.90;;;;;;5034023;28;20362;-61
2021/07/02 01:15:33;;;;;;;28.13;18.92;;;15.50;99.90;;;;;;5033708;28;20040;-60
2021/07/02 01:17:59;;;;;;;27.15;19.02;;;15.50;99.90;;;;;;5033273;28;20048;-61
2021/07/02 01:20:24;;;;;;;33.08;18.52;;;15.60;99.90;;;;;;5034027;28;20067;-60
2021/07/02 01:22:50;;;;;;;31.75;20.60;;;15.60;99.90;;;;;;5010200;28;20070;-60
2021/07/02 01:25:15;;;;;;;28.08;18.13;;;15.70;99.90;;;;;;5025207;28;20438;-61
2021/07/02 01:27:41;;;;;;;33.95;19.90;;;15.60;99.90;;;;;;5017227;28;20489;-62
2021/07/02 01:30:09;;;;;;;27.63;18.95;;;15.50;99.90;;;;;;5032351;28;20051;-61
2021/07/02 01:32:35;;;;;;;31.02;19.83;;;15.40;99.90;;;;;;5014357;28;20101;-61
2021/07/02 01:35:00;;;;;;;32.05;19.35;;;15.50;99.90;;;;;;5032868;28;20116;-61
2021/07/02 01:37:26;;;;;;;29.38;19.48;;;15.50;99.90;;;;;;5032691;28;20545;-60
2021/07/02 01:39:51;;;;;;;33.38;19.52;;;15.50;99.90;;;;;;5035825;28;20358;-60
2021/07/02 01:42:17;;;;;;;27.40;18.75;;;15.60;99.90;;;;;;5031505;28;20030;-61
2021/07/02 01:44:43;;;;;;;24.67;18.85;;;15.60;99.90;;;;;;5013996;28;20036;-61
2021/07/02 01:47:08;;;;;;;27.60;18.35;;;15.60;99.90;;;;;;5032065;28;20025;-61
2021/07/02 01:49:34;;;;;;;29.33;19.88;;;15.60;99.90;;;;;;5033146;28;20488;-60
2021/07/02 01:52:00;;;;;;;33.70;20.77;;;15.50;99.90;;;;;;5032024;28;20049;-61
2021/07/02 01:54:25;;;;;;;34.17;21.92;;;15.60;99.90;;;;;;5032079;28;20489;-60
2021/07/02 01:56:51;;;;;;;31.42;20.95;;;15.50;99.90;;;;;;5031600;28;20036;-61
2021/07/02 01:59:17;;;;;;;29.30;18.75;;;15.40;99.90;;;;;;5031815;28;20108;-59
2021/07/02 02:01:44;;;;;;;31.55;20.17;;;15.50;99.90;;;;;;5031867;28;20037;-61
2021/07/02 02:04:10;;;;;;;28.63;19.30;;;15.50;99.90;;;;;;5032009;28;20037;-61
2021/07/02 02:06:36;;;;;;;29.30;18.75;;;15.70;99.90;;;;;;5013303;28;20060;-61
2021/07/02 02:09:02;;;;;;;26.50;19.05;;;15.60;99.90;;;;;;5032164;28;20034;-60
2021/07/02 02:11:28;;;;;;;33.97;19.95;;;15.50;99.90;;;;;;5031892;28;20088;-62
2021/07/02 02:13:53;;;;;;;31.20;18.23;;;15.60;99.90;;;;;;5031402;28;20428;-61
2021/07/02 02:16:19;;;;;;;26.83;19.08;;;15.60;99.90;;;;;;5013830;28;20504;-61
2021/07/02 02:18:44;;;;;;;28.83;17.77;;;15.80;99.90;;;;;;5031185;28;20038;-61
2021/07/02 02:21:10;;;;;;;27.50;18.85;;;15.80;99.90;;;;;;5031867;28;20037;-60
2021/07/02 02:23:35;;;;;;;26.10;18.80;;;15.70;99.90;;;;;;5014235;28;20092;-59
2021/07/02 02:26:01;;;;;;;29.15;19.52;;;15.70;99.90;;;;;;5030954;28;20025;-60
2021/07/02 02:28:27;;;;;;;29.48;18.08;;;15.70;99.90;;;;;;4994158;28;1046182;-61
2021/07/02 02:30:52;;;;;;;27.67;18.50;;;15.80;99.90;;;;;;5013395;28;20041;-61
2021/07/02 02:33:18;;;;;;;25.83;18.27;;;15.90;99.80;;;;;;5032099;28;20037;-61
2021/07/02 02:35:44;;;;;;;24.45;18.02;;;15.90;99.70;;;;;;5031731;28;20029;-60
2021/07/02 02:38:09;;;;;;;26.52;18.08;;;15.90;99.70;;;;;;5033346;28;20036;-60
2021/07/02 02:40:35;;;;;;;26.73;17.38;;;15.90;99.80;;;;;;5032063;28;20398;-61
2021/07/02 02:43:02;;;;;;;23.45;16.63;;;15.80;99.90;;;;;;5031893;28;20382;-60
2021/07/02 02:45:27;;;;;;;29.85;18.08;;;15.80;99.90;;;;;;5031587;28;20565;-61
2021/07/02 02:47:53;;;;;;;24.58;17.52;;;15.80;99.90;;;;;;5014199;28;20697;-61
2021/07/02 02:50:19;;;;;;;28.48;18.95;;;15.90;99.90;;;;;;5014297;28;20491;-61
2021/07/02 02:52:44;;;;;;;29.00;18.13;;;15.90;99.90;;;;;;5031404;28;20451;-62
2021/07/02 02:55:10;;;;;;;24.00;17.63;;;15.90;99.90;;;;;;5013153;28;20393;-61
2021/07/02 02:57:35;;;;;;;25.67;18.35;;;15.90;99.90;;;;;;5014011;28;20408;-61
2021/07/02 03:00:03;;;;;;;27.77;18.77;;;15.80;99.90;;;;;;5031759;28;20029;-60
2021/07/02 03:02:28;;;;;;;30.33;18.85;;;15.80;99.90;;;;;;5032253;28;20184;-60
2021/07/02 03:04:54;;;;;;;33.22;21.17;;;15.70;99.90;;;;;;5031992;28;20574;-60
2021/07/02 03:07:20;;;;;;;31.85;19.48;;;15.60;99.90;;;;;;5013512;28;20084;-60
2021/07/02 03:09:45;;;;;;;29.35;20.38;;;15.70;99.90;;;;;;5032462;28;20033;-60
2021/07/02 03:12:11;;;;;;;28.38;18.85;;;15.80;99.90;;;;;;5031806;28;20041;-60
2021/07/02 03:14:36;;;;;;;32.25;21.17;;;15.80;99.90;;;;;;5031440;28;20022;-60
2021/07/02 03:17:02;;;;;;;31.40;19.98;;;15.80;99.90;;;;;;5031153;28;20608;-60
2021/07/02 03:19:28;;;;;;;28.58;19.90;;;15.80;99.90;;;;;;5031896;28;20163;-57
2021/07/02 03:21:53;;;;;;;33.85;20.98;;;15.80;99.90;;;;;;5031885;28;20037;-61
2021/07/02 03:24:19;;;;;;;31.60;20.33;;;15.70;99.90;;;;;;5031927;28;20038;-61
2021/07/02 03:26:45;;;;;;;34.28;20.38;;;15.80;99.90;;;;;;5018577;28;20037;-61
2021/07/02 03:29:11;;;;;;;30.52;20.27;;;15.90;99.90;;;;;;5031252;28;20096;-61
2021/07/02 03:31:36;;;;;;;29.00;20.10;;;15.90;99.80;;;;;;5031390;28;20033;-61
2021/07/02 03:34:02;;;;;;;33.70;21.08;;;15.90;99.90;;;;;;5031348;28;20057;-60
2021/07/02 03:36:28;;;;;;;33.65;20.55;;;15.80;99.90;;;;;;5030903;28;20048;-60
2021/07/02 03:38:54;;;;;;;30.02;21.55;;;15.70;99.90;;;;;;5037582;28;20108;-59
2021/07/02 03:41:19;;;;;;;29.40;20.63;;;15.70;99.90;;;;;;5031380;28;20440;-62
2021/07/02 03:43:45;;;;;;;33.70;22.13;;;15.70;99.90;;;;;;5031135;28;20025;-61
2021/07/02 03:46:11;;;;;;;34.72;21.27;;;15.70;99.90;;;;;;5030859;28;20061;-60
2021/07/02 03:48:36;;;;;;;34.10;23.25;;;15.70;99.90;;;;;;5031154;28;20036;-61
2021/07/02 03:51:03;;;;;;;37.67;22.48;;;15.60;99.90;;;;;;5031303;28;20029;-61
2021/07/02 03:53:29;;;;;;;36.00;21.95;;;15.70;99.90;;;;;;5031956;28;20574;-60
2021/07/02 03:55:55;;;;;;;36.20;22.15;;;15.80;99.90;;;;;;5031271;28;20037;-61
2021/07/02 03:58:20;;;;;;;38.55;23.92;;;15.80;99.90;;;;;;5013565;28;20041;-61
2021/07/02 04:00:46;;;;;;;37.30;23.65;;;15.70;99.90;;;;;;5031336;28;20037;-61
2021/07/02 04:03:13;;;;;;;40.10;24.25;;;15.50;99.90;;;;;;5031621;28;20489;-60
2021/07/02 04:05:43;;;;;;;43.55;24.38;;;15.50;99.90;;;;;;5032787;28;20030;-60
2021/07/02 04:08:09;;;;;;;38.28;23.55;;;15.60;99.90;;;;;;5034829;28;20127;-60
2021/07/02 04:10:34;;;;;;;38.25;22.55;;;15.50;99.90;;;;;;5035829;28;20472;-61
2021/07/02 04:13:00;;;;;;;34.08;22.45;;;15.60;99.90;;;;;;5017209;28;20088;-59
2021/07/02 04:15:25;;;;;;;39.58;23.65;;;15.70;99.90;;;;;;5028312;28;20038;-61
2021/07/02 04:17:51;;;;;;;34.15;22.83;;;15.70;99.90;;;;;;5034607;28;20029;-60
2021/07/02 04:20:16;;;;;;;37.78;22.65;;;15.60;99.90;;;;;;5034512;28;20424;-62
2021/07/02 04:22:42;;;;;;;42.53;25.33;;;15.70;99.90;;;;;;5033949;28;20069;-61
2021/07/02 04:25:09;;;;;;;37.65;24.02;;;15.70;99.90;;;;;;5034144;28;20408;-58
2021/07/02 04:27:35;;;;;;;36.88;23.40;;;15.70;99.90;;;;;;5033725;28;20025;-60
2021/07/02 04:30:04;;;;;;;37.55;24.23;;;15.70;99.90;;;;;;5034160;28;20559;-61
2021/07/02 04:32:29;;;;;;;34.17;23.27;;;15.60;99.90;;;;;;5033715;28;20091;-61
2021/07/02 04:34:55;;;;;;;37.50;24.15;;;15.60;99.90;;;;;;5034185;28;20480;-61
2021/07/02 04:37:20;;;;;;;38.88;23.90;;;15.70;99.90;;;;;;5034312;28;20485;-60
2021/07/02 04:39:46;;;;;;;36.90;22.95;;;15.80;99.90;;;;;;5038860;28;20469;-60
2021/07/02 04:42:12;;;;;;;39.03;24.05;;;15.70;99.90;;;;;;5033207;28;20037;-60
2021/07/02 04:44:38;;;;;;;42.85;25.63;;;15.70;99.90;;;;;;5034328;28;20484;-60
2021/07/02 04:47:05;;;;;;;40.05;23.30;;;15.70;99.90;;;;;;5033717;28;20025;-60
2021/07/02 04:49:31;;;;;;;31.20;22.63;;;15.80;99.90;;;;;;5033752;28;20032;-60
2021/07/02 04:51:57;;;;;;;35.97;22.42;;;16.00;99.90;;;;;;5034066;28;20047;-59
2021/07/02 04:54:22;;;;;;;35.97;23.13;;;16.10;99.90;;;;;;5034075;28;20497;-60
2021/07/02 04:56:48;;;;;;;39.13;22.92;;;16.20;99.90;;;;;;5033669;28;20033;-60
2021/07/02 04:59:15;;;;;;;36.42;21.17;;;16.30;99.60;;;;;;5034626;28;20061;-60
2021/07/02 05:01:40;;;;;;;36.28;22.67;;;16.50;99.30;;;;;;5034274;28;20091;-61
2021/07/02 05:04:07;;;;;;;32.65;21.20;;;16.40;99.60;;;;;;5033497;28;20065;-61
2021/07/02 05:06:33;;;;;;;35.22;22.13;;;16.30;99.90;;;;;;5033560;28;20033;-61
2021/07/02 05:08:59;;;;;;;30.83;20.05;;;16.30;99.70;;;;;;5034145;28;20530;-60
2021/07/02 05:11:25;;;;;;;33.75;21.52;;;16.50;99.40;;;;;;5033645;28;20107;-61
2021/07/02 05:13:51;;;;;;;34.42;20.30;;;16.50;99.30;;;;;;5033947;28;20025;-61
2021/07/02 05:16:16;;;;;;;34.75;21.50;;;16.40;99.10;;;;;;5015236;28;20079;-61
2021/07/02 05:18:42;;;;;;;30.63;19.85;;;16.50;99.00;;;;;;5032842;28;20032;-60
2021/07/02 05:21:07;;;;;;;28.23;18.38;;;16.60;99.00;;;;;;5033614;28;20541;-61
2021/07/02 05:23:33;;;;;;;32.97;20.75;;;16.80;98.80;;;;;;5016175;28;20539;-62
2021/07/02 05:25:59;;;;;;;33.13;19.08;;;16.60;98.80;;;;;;5033025;28;20079;-61
2021/07/02 05:28:25;;;;;;;31.70;18.83;;;16.70;98.50;;;;;;5033540;28;20091;-62
2021/07/02 05:30:51;;;;;;;29.00;19.90;;;16.90;98.40;;;;;;5033180;28;20090;-61
2021/07/02 05:33:16;;;;;;;22.23;16.67;;;17.00;98.30;;;;;;5033224;28;20536;-60
2021/07/02 05:35:42;;;;;;;28.20;18.92;;;16.90;98.50;;;;;;5032974;28;20030;-60
2021/07/02 05:38:08;;;;;;;27.83;18.42;;;17.00;98.30;;;;;;5037864;28;20064;-60
2021/07/02 05:40:33;;;;;;;29.23;18.10;;;17.10;98.10;;;;;;5033141;28;20033;-62
2021/07/02 05:42:59;;;;;;;28.40;18.17;;;17.20;97.60;;;;;;5014909;28;20423;-61
2021/07/02 05:45:24;;;;;;;26.35;18.13;;;17.40;97.40;;;;;;5032451;28;20033;-61
2021/07/02 05:47:51;;;;;;;20.30;16.85;;;17.40;97.70;;;;;;5015212;28;20449;-60
2021/07/02 05:50:18;;;;;;;22.48;16.25;;;17.40;97.10;;;;;;5033305;28;20076;-61
2021/07/02 05:52:45;;;;;;;24.02;17.55;;;17.50;97.50;;;;;;5032862;28;20477;-60
2021/07/02 05:55:12;;;;;;;21.13;16.13;;;17.30;97.10;;;;;;5032674;28;20056;-60
2021/07/02 05:57:41;;;;;;;23.48;17.10;;;17.10;97.20;;;;;;5032669;28;20025;-61
2021/07/02 06:00:09;;;;;;;21.83;16.25;;;17.10;97.60;;;;;;5032251;28;20038;-59
2021/07/02 06:02:34;;;;;;;22.63;16.55;;;17.00;97.50;;;;;;5032685;28;20140;-59
2021/07/02 06:05:00;;;;;;;21.10;15.52;;;17.00;97.60;;;;;;5032396;28;20501;-59
2021/07/02 06:07:26;;;;;;;24.90;16.77;;;17.10;97.70;;;;;;5032043;28;20026;-60
2021/07/02 06:09:51;;;;;;;24.83;15.57;;;17.00;97.90;;;;;;5032285;28;20025;-59
2021/07/02 06:12:17;;;;;;;24.55;16.17;;;17.10;97.80;;;;;;5032282;28;20021;-61
2021/07/02 06:14:42;;;;;;;22.73;14.68;;;17.00;97.90;;;;;;5014397;28;20108;-61
2021/07/02 06:17:08;;;;;;;24.25;16.42;;;17.00;97.70;;;;;;5032240;28;20029;-61
2021/07/02 06:19:33;;;;;;;21.15;15.27;;;17.00;97.60;;;;;;5014370;28;20040;-61
2021/07/02 06:21:59;;;;;;;22.10;16.20;;;17.10;97.50;;;;;;5032342;28;20033;-60
2021/07/02 06:24:25;;;;;;;22.70;15.85;;;17.10;97.50;;;;;;5032629;28;20017;-60
2021/07/02 06:26:50;;;;;;;23.65;16.10;;;17.00;97.70;;;;;;5031627;28;20041;-60
2021/07/02 06:29:16;;;;;;;22.45;16.10;;;17.10;97.60;;;;;;5031881;28;20049;-60
2021/07/02 06:31:41;;;;;;;20.17;15.27;;;17.30;97.30;;;;;;5032314;28;20079;-60
2021/07/02 06:34:07;;;;;;;23.02;14.90;;;17.40;97.00;;;;;;5032246;28;20069;-60
2021/07/02 06:36:33;;;;;;;21.70;15.40;;;17.50;96.80;;;;;;5031420;28;20053;-61
2021/07/02 06:38:58;;;;;;;22.58;14.95;;;17.60;96.70;;;;;;5028497;28;20045;-61
2021/07/02 06:41:24;;;;;;;24.73;15.40;;;17.60;96.60;;;;;;5031578;28;20069;-61
2021/07/02 06:43:50;;;;;;;23.30;14.98;;;17.70;96.30;;;;;;5031728;28;20057;-60
2021/07/02 06:46:15;;;;;;;21.27;15.10;;;17.60;96.50;;;;;;5014444;28;20029;-62
2021/07/02 06:48:41;;;;;;;22.10;14.50;;;17.40;96.70;;;;;;5022918;28;20104;-63
2021/07/02 06:51:06;;;;;;;24.42;16.20;;;17.50;96.90;;;;;;5032453;28;20082;-59
2021/07/02 06:53:32;;;;;;;28.65;16.58;;;17.50;96.70;;;;;;5034016;28;20045;-59
2021/07/02 06:55:57;;;;;;;19.92;14.88;;;17.50;96.60;;;;;;5029045;28;20037;-61
2021/07/02 06:58:23;;;;;;;20.05;14.20;;;17.50;97.00;;;;;;5031396;28;20556;-60
2021/07/02 07:00:49;;;;;;;18.88;14.02;;;17.80;96.50;;;;;;5031079;28;20037;-60
2021/07/02 07:03:14;;;;;;;22.02;13.80;;;18.00;96.30;;;;;;5031523;28;20061;-60
2021/07/02 07:05:40;;;;;;;20.20;14.40;;;17.90;96.10;;;;;;5013961;28;20055;-60
2021/07/02 07:08:08;;;;;;;22.13;15.70;;;17.80;96.30;;;;;;5031737;28;20116;-60
2021/07/02 07:10:34;;;;;;;19.13;14.82;;;17.80;96.10;;;;;;5032237;28;20025;-61
2021/07/02 07:13:01;;;;;;;23.70;15.50;;;17.80;96.30;;;;;;5032484;28;20045;-60
2021/07/02 07:15:27;;;;;;;23.08;14.70;;;17.60;96.70;;;;;;5031947;28;20082;-64
2021/07/02 07:17:54;;;;;;;22.67;15.70;;;17.60;97.00;;;;;;5032462;28;20056;-61
2021/07/02 07:20:20;;;;;;;19.17;14.50;;;17.60;96.70;;;;;;5032502;28;20030;-59
2021/07/02 07:22:47;;;;;;;18.95;14.45;;;17.60;96.90;;;;;;5031395;28;20064;-60
2021/07/02 07:25:13;;;;;;;22.20;14.68;;;17.60;96.90;;;;;;5030500;28;20029;-59
2021/07/02 07:27:41;;;;;;;21.52;14.88;;;17.60;96.80;;;;;;5031298;28;20079;-60
2021/07/02 07:30:07;;;;;;;20.33;14.70;;;17.40;97.20;;;;;;5031987;28;20026;-60
2021/07/02 07:32:34;;;;;;;17.42;14.15;;;17.40;97.40;;;;;;5014458;28;20022;-62
2021/07/02 07:35:06;;;;;;;22.88;14.25;;;17.70;97.00;;;;;;5013843;28;20124;-61
2021/07/02 07:37:34;;;;;;;19.65;13.73;;;17.80;96.60;;;;;;5033099;28;20465;-60
2021/07/02 07:40:00;;;;;;;17.20;13.10;;;17.90;96.50;;;;;;5035053;28;20029;-58
2021/07/02 07:42:25;;;;;;;17.60;12.88;;;18.00;96.30;;;;;;5035011;28;20036;-61
2021/07/02 07:44:51;;;;;;;18.20;12.80;;;18.00;96.30;;;;;;5023631;28;20528;-61
2021/07/02 07:47:16;;;;;;;17.95;13.93;;;18.00;95.80;;;;;;5013646;28;20038;-61
2021/07/02 07:49:44;;;;;;;20.95;14.45;;;18.00;95.70;;;;;;5013849;28;20034;-61
2021/07/02 07:54:35;;;;;;;19.42;14.52;;;18.10;95.60;;;;;;5022169;28;20029;-59
2021/07/02 07:57:01;;;;;;;19.90;14.65;;;18.10;95.40;;;;;;5013901;28;20046;-60
2021/07/02 07:59:28;;;;;;;17.95;14.13;;;18.10;95.50;;;;;;5016859;28;20034;-60
2021/07/02 08:01:53;;;;;;;19.77;15.27;;;18.20;95.50;;;;;;5013938;28;20034;-60
2021/07/02 08:04:19;;;;;;;21.40;15.45;;;18.10;95.80;;;;;;5016570;28;20036;-60
2021/07/02 08:06:45;;;;;;;19.50;14.43;;;18.10;95.70;;;;;;5007565;28;20123;-60
2021/07/02 08:09:12;;;;;;;20.27;15.07;;;18.20;95.50;;;;;;5030256;28;20510;-60
2021/07/02 08:11:38;;;;;;;20.50;14.30;;;18.20;95.30;;;;;;5034427;28;20025;-60
2021/07/02 08:14:05;;;;;;;18.10;14.65;;;18.10;95.20;;;;;;5034715;28;20045;-59
2021/07/02 08:16:30;;;;;;;19.58;13.55;;;18.10;95.40;;;;;;5020189;28;20033;-60
2021/07/02 08:18:56;;;;;;;16.92;13.85;;;18.30;95.30;;;;;;5034605;28;20032;-59
2021/07/02 08:21:22;;;;;;;18.40;14.85;;;18.20;95.40;;;;;;5034619;28;20033;-59
2021/07/02 08:23:48;;;;;;;20.50;14.60;;;18.40;95.10;;;;;;5031267;28;20046;-61
2021/07/02 08:26:14;;;;;;;22.67;15.40;;;18.40;95.10;;;;;;5034524;28;20615;-59
2021/07/02 08:31:23;;;;;;;21.90;15.05;;;18.60;94.90;;;;;;5034316;28;20385;-60
2021/07/02 08:33:49;;;;;;;17.67;13.85;;;18.60;94.80;;;;;;5014507;28;20044;-61
2021/07/02 08:36:15;;;;;;;19.05;14.10;;;18.60;94.70;;;;;;5020686;28;20030;-61
2021/07/02 08:38:41;;;;;;;18.48;14.43;;;18.60;94.70;;;;;;5038911;28;20489;-60
2021/07/02 08:41:11;;;;;;;19.00;14.52;;;18.60;94.60;;;;;;5034315;28;20073;-59
2021/07/02 08:43:38;;;;;;;19.45;15.10;;;18.60;94.70;;;;;;5033455;28;20382;-60
2021/07/02 08:46:04;;;;;;;19.55;14.43;;;18.60;94.50;;;;;;5033201;28;20030;-61
2021/07/02 08:48:31;;;;;;;18.75;14.85;;;18.50;94.80;;;;;;5033536;28;20037;-61
2021/07/02 08:50:56;;;;;;;19.83;14.93;;;18.60;94.80;;;;;;5027684;28;20022;-59
2021/07/02 08:53:22;;;;;;;18.58;13.80;;;18.60;94.50;;;;;;5028775;28;20429;-60
2021/07/02 08:55:50;;;;;;;19.20;13.90;;;18.70;94.30;;;;;;5033394;28;20079;-60
2021/07/02 08:58:16;;;;;;;17.48;13.57;;;18.70;94.10;;;;;;5033606;28;20084;-60
2021/07/02 09:00:43;;;;;;;17.02;13.15;;;18.70;94.30;;;;;;5032727;28;20029;-59
2021/07/02 09:03:35;;;;;;;17.63;14.38;;;18.80;94.20;;;;;;5030441;28;20059;-61
2021/07/02 09:06:10;;;;;;;18.75;14.02;;;18.60;94.00;;;;;;5019065;28;20025;-60
2021/07/02 09:08:35;;;;;;;17.83;14.45;;;18.60;94.30;;;;;;5012972;28;20033;-59
2021/07/02 09:11:02;;;;;;;17.27;13.43;;;18.70;94.40;;;;;;5023969;28;20105;-59
2021/07/02 09:13:48;;;;;;;17.30;14.75;;;18.70;94.50;;;;;;5015605;28;20370;-61
2021/07/02 09:16:47;;;;;;;19.60;12.70;;;18.70;94.50;;;;;;5014760;28;20556;-60
2021/07/02 09:19:20;;;;;;;17.48;12.70;;;18.70;94.70;;;;;;4998911;28;20410;-62
2021/07/02 09:21:46;;;;;;;14.73;12.32;;;18.80;94.60;;;;;;5026960;28;20029;-60
2021/07/02 09:24:35;;;;;;;17.73;14.48;;;18.80;94.70;;;;;;5025866;28;20041;-60
2021/07/02 09:27:26;;;;;;;18.05;14.00;;;18.80;94.70;;;;;;5032846;28;20030;-60
2021/07/02 09:30:08;;;;;;;20.65;14.13;;;18.40;95.30;;;;;;5045150;28;20041;-60
2021/07/02 09:32:51;;;;;;;18.27;13.52;;;18.30;95.90;;;;;;5033054;28;20026;-59
2021/07/02 09:35:19;;;;;;;20.40;14.02;;;18.30;95.80;;;;;;5033866;28;20439;-60
2021/07/02 09:37:51;;;;;;;16.50;12.63;;;18.10;96.10;;;;;;5038424;28;20043;-59
2021/07/02 09:40:26;;;;;;;18.20;13.23;;;18.10;96.20;;;;;;5035288;28;20124;-59
2021/07/02 09:43:15;;;;;;;17.00;12.65;;;18.20;95.90;;;;;;5036850;28;20032;-60
2021/07/02 09:46:02;;;;;;;17.63;12.93;;;18.20;95.90;;;;;;5034276;28;20025;-60
2021/07/02 09:48:30;;;;;;;15.63;12.05;;;18.30;96.10;;;;;;5033176;28;20037;-60
2021/07/02 09:51:01;;;;;;;17.63;12.98;;;18.40;95.60;;;;;;5007393;28;20042;-56
2021/07/02 09:53:35;;;;;;;16.25;12.05;;;18.40;95.30;;;;;;5022068;28;20033;-59
2021/07/02 09:56:09;;;;;;;14.73;11.93;;;18.50;95.30;;;;;;5009426;28;20079;-60
2021/07/02 09:58:36;;;;;;;;;;;18.40;95.50;;;;;;5023907;28;20034;-60
2021/07/02 10:01:03;;;;;;;14.45;11.90;;;18.50;95.40;;;;;;5010009;28;19912;-60
2021/07/02 10:03:44;;;;;;;12.48;11.05;;;18.60;95.20;;;;;;5022291;28;20662;-60
2021/07/02 10:06:21;;;;;;;17.20;12.40;;;18.50;95.00;;;;;;5032954;28;20037;-60
2021/07/02 10:08:47;;;;;;;16.60;12.38;;;18.50;94.80;;;;;;5024001;28;20038;-59
2021/07/02 10:11:14;;;;;;;13.32;11.27;;;18.80;94.40;;;;;;5004078;28;20037;-59
2021/07/02 10:13:44;;;;;;;15.23;11.48;;;19.00;94.00;;;;;;5033154;28;20029;-59
2021/07/02 10:16:12;;;;;;;15.02;11.02;;;18.80;94.00;;;;;;5023830;28;20048;-59
2021/07/02 10:18:45;;;;;;;13.43;11.55;;;18.80;94.10;;;;;;5016041;28;20124;-59
2021/07/02 10:21:12;;;;;;;13.23;10.60;;;18.90;93.90;;;;;;5024727;28;20030;-61
2021/07/02 10:23:44;;;;;;;16.02;11.70;;;19.00;93.80;;;;;;5028343;28;20037;-60
2021/07/02 10:26:12;;;;;;;14.65;11.07;;;19.30;93.40;;;;;;5031388;28;20128;-59
2021/07/02 10:28:39;;;;;;;13.68;10.82;;;19.30;93.50;;;;;;5032820;28;20067;-59
2021/07/02 10:31:07;;;;;;;15.00;11.48;;;19.20;93.30;;;;;;5033847;28;20754;-59
2021/07/02 10:33:34;;;;;;;18.60;11.82;;;19.30;93.40;;;;;;5014817;28;20049;-59
2021/07/02 10:36:05;;;;;;;18.05;11.85;;;19.20;93.50;;;;;;5033420;28;20029;-60
2021/07/02 10:38:38;;;;;;;12.15;10.77;;;19.10;93.50;;;;;;5031652;28;20501;-61
2021/07/02 10:41:33;;;;;;;15.23;12.18;;;19.30;93.30;;;;;;5027726;28;20029;-61
2021/07/02 10:44:14;;;;;;;15.95;11.63;;;19.10;93.40;;;;;;5007984;28;20348;-60
2021/07/02 10:46:49;;;;;;;15.20;11.95;;;19.20;93.40;;;;;;5027961;28;20037;-63
2021/07/02 10:49:15;;;;;;;;;;;19.10;93.60;;;;;;5015082;28;20029;-60
2021/07/02 10:51:42;;;;;;;14.23;10.25;;;19.30;93.60;;;;;;5031846;28;19919;-60
2021/07/02 10:54:25;;;;;;;14.40;11.77;;;19.50;93.40;;;;;;5032330;28;20552;-60
2021/07/02 10:56:57;;;;;;;13.32;11.02;;;19.60;92.90;;;;;;5027691;28;20026;-61
2021/07/02 10:59:45;;;;;;;13.32;10.75;;;19.50;93.10;;;;;;5031803;28;20511;-60
2021/07/02 11:02:11;;;;;;;13.32;11.30;;;19.60;92.60;;;;;;5029507;28;20100;-59
2021/07/02 11:04:48;;;;;;;15.25;11.77;;;19.70;92.40;;;;;;5031390;28;20435;-60
2021/07/02 11:07:23;;;;;;;13.50;11.02;;;19.60;92.80;;;;;;5029906;28;20037;-60
2021/07/02 11:09:52;;;;;;;13.32;11.02;;;19.50;92.70;;;;;;5028112;28;20730;-60
2021/07/02 11:12:21;;;;;;;15.40;11.63;;;19.60;92.80;;;;;;5031647;28;20132;-61
2021/07/02 11:14:53;;;;;;;12.57;10.00;;;19.80;92.30;;;;;;5031363;28;20026;-60
2021/07/02 11:17:21;;;;;;;11.75;9.88;;;19.80;92.60;;;;;;5035444;28;20057;-60
2021/07/02 11:19:48;;;;;;;10.85;9.05;;;19.90;92.70;;;;;;5035520;28;20025;-60
2021/07/02 11:22:28;;;;;;;11.25;9.18;;;19.90;91.70;;;;;;5036181;28;20388;-60
2021/07/02 11:25:01;;;;;;;12.75;10.82;;;19.80;91.80;;;;;;5035907;28;20044;-60
2021/07/02 11:27:42;;;;;;;13.10;11.07;;;19.80;92.00;;;;;;5039175;28;20071;-60
2021/07/02 11:30:20;;;;;;;15.18;11.35;;;19.80;92.60;;;;;;5033443;28;20492;-60
2021/07/02 11:32:47;;;;;;;15.88;11.98;;;19.90;92.60;;;;;;5035650;28;20065;-60
2021/07/02 11:35:21;;;;;;;16.92;12.73;;;19.80;92.40;;;;;;5017088;28;20041;-60
2021/07/02 11:38:01;;;;;;;16.13;12.60;;;19.70;92.90;;;;;;5034669;28;20053;-61
2021/07/02 11:40:53;;;;;;;21.77;13.32;;;19.60;93.10;;;;;;5022138;28;20030;-59
2021/07/02 11:43:21;;;;;;;16.85;12.95;;;19.70;92.80;;;;;;5017553;28;20030;-60
2021/07/02 11:45:56;;;;;;;16.80;12.50;;;19.70;92.90;;;;;;5034640;28;20061;-60
2021/07/02 11:48:21;;;;;;;;;;;19.80;92.50;;;;;;5035101;28;20440;-61
2021/07/02 11:50:49;;;;;;;18.55;13.05;;;19.70;92.40;;;;;;5017316;28;19924;-60
2021/07/02 11:53:28;;;;;;;18.40;13.23;;;19.60;93.00;;;;;;5035288;28;20632;-59
2021/07/02 11:56:18;;;;;;;22.08;15.18;;;19.50;93.20;;;;;;5017174;28;20039;-59
2021/07/02 11:58:47;;;;;;;18.80;14.45;;;19.40;93.30;;;;;;5022734;28;20049;-60
2021/07/02 12:01:24;;;;;;;18.88;15.18;;;19.10;93.80;;;;;;5035242;28;20034;-63
2021/07/02 12:04:00;;;;;;;21.63;14.00;;;19.00;93.90;;;;;;5036130;28;20026;-60
2021/07/02 12:06:27;;;;;;;20.30;13.93;;;19.10;93.90;;;;;;5034276;28;20065;-61
2021/07/02 12:09:15;;;;;;;21.20;14.93;;;19.20;93.70;;;;;;5035007;28;20037;-59
2021/07/02 12:11:55;;;;;;;21.50;14.43;;;19.20;93.80;;;;;;5035122;28;20128;-59
2021/07/02 12:14:22;;;;;;;17.98;14.43;;;19.30;93.60;;;;;;5034747;28;20127;-60
2021/07/02 12:16:49;;;;;;;16.45;13.85;;;19.30;93.60;;;;;;5016142;28;20025;-59
2021/07/02 12:19:18;;;;;;;20.25;14.68;;;19.30;93.50;;;;;;5034530;28;20025;-60
2021/07/02 12:21:49;;;;;;;20.27;14.27;;;19.50;93.30;;;;;;5034473;28;20040;-60
2021/07/02 12:24:19;;;;;;;20.88;15.35;;;19.60;93.30;;;;;;5021181;28;20029;-60
2021/07/02 12:27:06;;;;;;;20.23;15.85;;;19.70;92.90;;;;;;5018468;28;20034;-60
2021/07/02 12:29:33;;;;;;;18.90;15.20;;;19.90;92.60;;;;;;5022165;28;20033;-59
2021/07/02 12:32:10;;;;;;;17.65;14.40;;;19.90;93.00;;;;;;5016991;28;20045;-60
2021/07/02 12:34:39;;;;;;;17.52;13.70;;;20.00;92.50;;;;;;5034382;28;20132;-59
2021/07/02 12:37:06;;;;;;;19.23;14.98;;;20.00;92.60;;;;;;5016000;28;20033;-59
2021/07/02 12:39:34;;;;;;;20.23;13.32;;;20.10;92.40;;;;;;5039563;28;20097;-61